Time;durP1;ratioP1;P1;durP2;ratioP2;P2;SDS_P1;SDS_P2;PMS_P1;PMS_P2;Temp;Humidity;BMP_temperature;BMP_pressure;BME280_temperature;BME280_humidity;BME280_pressure;Samples;Min_cycle;Max_cycle;Signal;HPM_P1;HPM_P2
2021/10/19 00:04:14;;;;;;;5.30;2.73;;;;;;;;;;10245973;28;20034;-60
2021/10/19 00:09:11;;;;;;;3.90;2.80;;;;;;;;;;10252072;28;20192;-60
2021/10/19 00:14:09;;;;;;;9.10;5.43;;;;;;;;;;10253296;28;20038;-59
2021/10/19 00:19:06;;;;;;;9.40;5.13;;;;;;;;;;10253648;28;20049;-60
2021/10/19 00:24:03;;;;;;;4.57;2.90;;;;;;;;;;10256132;28;20038;-59
2021/10/19 00:29:01;;;;;;;4.33;3.00;;;;;;;;;;10248565;28;20053;-61
2021/10/19 00:33:58;;;;;;;7.50;4.07;;;;;;;;;;10254885;28;20507;-60
2021/10/19 00:38:56;;;;;;;15.87;5.23;;;;;;;;;;10250950;28;20380;-61
2021/10/19 00:43:53;;;;;;;8.73;5.03;;;;;;;;;;10254300;28;20165;-61
2021/10/19 00:48:51;;;;;;;9.83;5.33;;;;;;;;;;10246601;28;20530;-61
2021/10/19 00:53:48;;;;;;;5.00;3.43;;;;;;;;;;10255660;28;20034;-61
2021/10/19 00:58:46;;;;;;;10.10;4.83;;;;;;;;;;10257172;28;20034;-60
2021/10/19 01:03:43;;;;;;;9.63;4.03;;;;;;;;;;10254190;28;20030;-62
2021/10/19 01:08:41;;;;;;;8.53;4.17;;;;;;;;;;10246715;28;20411;-63
2021/10/19 01:13:38;;;;;;;7.97;3.57;;;;;;;;;;10254451;28;20503;-62
2021/10/19 01:18:36;;;;;;;15.77;5.47;;;;;;;;;;10257009;28;20060;-62
2021/10/19 01:23:34;;;;;;;13.35;6.28;;;;;;;;;;10253016;28;20049;-62
2021/10/19 01:28:31;;;;;;;9.45;4.85;;;;;;;;;;10258972;28;20499;-62
2021/10/19 01:33:29;;;;;;;5.23;3.37;;;;;;;;;;10244886;28;20180;-61
2021/10/19 01:38:28;;;;;;;13.33;5.23;;;;;;;;;;10252677;28;20038;-61
2021/10/19 01:43:26;;;;;;;8.93;4.80;;;;;;;;;;10248872;28;20057;-62
2021/10/19 01:48:24;;;;;;;8.30;4.95;;;;;;;;;;10243027;28;20523;-60
2021/10/19 01:53:22;;;;;;;12.52;5.68;;;;;;;;;;10263884;28;20034;-61
2021/10/19 01:58:25;;;;;;;8.20;4.67;;;;;;;;;;10244252;28;20041;-62
2021/10/19 02:03:23;;;;;;;10.70;4.45;;;;;;;;;;10248378;28;20148;-61
2021/10/19 02:08:21;;;;;;;8.05;3.95;;;;;;;;;;10250541;28;20122;-61
2021/10/19 02:13:18;;;;;;;5.50;3.43;;;;;;;;;;10257162;28;20036;-60
2021/10/19 02:18:16;;;;;;;7.47;3.87;;;;;;;;;;10258481;28;20092;-62
2021/10/19 02:23:13;;;;;;;9.17;4.47;;;;;;;;;;10257197;28;20121;-59
2021/10/19 02:28:11;;;;;;;7.00;3.90;;;;;;;;;;10246056;28;20488;-59
2021/10/19 02:33:08;;;;;;;8.67;5.50;;;;;;;;;;10241734;28;20053;-57
2021/10/19 02:38:05;;;;;;;10.53;6.10;;;;;;;;;;10250535;28;20037;-59
2021/10/19 02:43:03;;;;;;;8.23;4.23;;;;;;;;;;10247331;28;20049;-60
2021/10/19 02:48:00;;;;;;;11.13;5.07;;;;;;;;;;10260666;28;20140;-61
2021/10/19 02:52:58;;;;;;;14.73;7.23;;;;;;;;;;10266997;28;20034;-62
2021/10/19 02:57:55;;;;;;;9.93;6.20;;;;;;;;;;10242213;28;20041;-60
2021/10/19 03:02:52;;;;;;;9.00;4.63;;;;;;;;;;10241925;28;20045;-60
2021/10/19 03:07:50;;;;;;;12.10;6.13;;;;;;;;;;10241509;28;20046;-60
2021/10/19 03:12:47;;;;;;;11.87;6.20;;;;;;;;;;10244881;28;20162;-60
2021/10/19 03:17:44;;;;;;;15.77;7.70;;;;;;;;;;10239607;28;20041;-63
2021/10/19 03:22:42;;;;;;;12.53;6.63;;;;;;;;;;10240533;28;20031;-62
2021/10/19 03:27:39;;;;;;;16.73;7.60;;;;;;;;;;10240202;28;20037;-62
2021/10/19 03:32:37;;;;;;;11.73;6.63;;;;;;;;;;10235997;28;20030;-63
2021/10/19 03:37:34;;;;;;;13.87;8.50;;;;;;;;;;10243347;28;20050;-62
2021/10/19 03:42:31;;;;;;;13.67;7.50;;;;;;;;;;10214275;28;21058;-61
2021/10/19 03:47:29;;;;;;;13.40;7.00;;;;;;;;;;10252344;28;20040;-63
2021/10/19 03:52:26;;;;;;;15.20;7.03;;;;;;;;;;10233417;28;20403;-62
2021/10/19 03:57:23;;;;;;;17.73;7.83;;;;;;;;;;10244508;28;20045;-62
2021/10/19 04:02:21;;;;;;;15.67;7.33;;;;;;;;;;10240582;28;20037;-62
2021/10/19 04:07:18;;;;;;;19.50;7.77;;;;;;;;;;10233574;28;20152;-62
2021/10/19 04:12:15;;;;;;;24.63;6.43;;;;;;;;;;10232580;28;20026;-61
2021/10/19 04:17:16;;;;;;;16.43;7.47;;;;;;;;;;10231577;28;21142;-59
2021/10/19 04:22:13;;;;;;;17.83;7.10;;;;;;;;;;10229929;28;20046;-61
2021/10/19 04:27:10;;;;;;;8.77;5.67;;;;;;;;;;10241984;28;20340;-61
2021/10/19 04:32:08;;;;;;;13.60;6.73;;;;;;;;;;10236943;28;20034;-61
2021/10/19 04:37:05;;;;;;;14.80;7.03;;;;;;;;;;10243298;28;20403;-60
2021/10/19 04:42:03;;;;;;;11.40;5.73;;;;;;;;;;10258610;22;20041;-63
2021/10/19 04:47:00;;;;;;;13.90;7.03;;;;;;;;;;10319179;28;20041;-65
2021/10/19 04:51:57;;;;;;;19.20;7.73;;;;;;;;;;10266270;28;20038;-64
2021/10/19 04:56:55;;;;;;;18.67;7.80;;;;;;;;;;10273511;28;20137;-65
2021/10/19 05:01:52;;;;;;;20.77;8.43;;;;;;;;;;10269548;28;20041;-63
2021/10/19 05:06:50;;;;;;;16.70;6.93;;;;;;;;;;10284954;28;20064;-63
2021/10/19 05:11:47;;;;;;;20.97;9.50;;;;;;;;;;10259586;28;20121;-62
2021/10/19 05:16:44;;;;;;;15.47;7.93;;;;;;;;;;10265572;28;20088;-60
2021/10/19 05:21:42;;;;;;;19.47;8.17;;;;;;;;;;10278927;28;20029;-60
2021/10/19 05:26:39;;;;;;;17.20;7.07;;;;;;;;;;10276475;28;20386;-64
2021/10/19 05:31:37;;;;;;;19.33;8.07;;;;;;;;;;10276142;28;20129;-63
2021/10/19 05:36:36;;;;;;;12.23;7.07;;;;;;;;;;10280427;28;20030;-65
2021/10/19 05:41:33;;;;;;;16.35;8.13;;;;;;;;;;10255761;28;20266;-65
2021/10/19 05:46:31;;;;;;;17.63;9.03;;;;;;;;;;10272675;28;20053;-64
2021/10/19 05:51:28;;;;;;;9.43;5.80;;;;;;;;;;10287871;28;20064;-65
2021/10/19 05:56:25;;;;;;;14.10;7.23;;;;;;;;;;10278999;28;20034;-67
2021/10/19 06:01:23;;;;;;;15.10;7.47;;;;;;;;;;10289241;28;20120;-65
2021/10/19 06:06:20;;;;;;;15.53;7.77;;;;;;;;;;10289324;28;20454;-66
2021/10/19 06:11:18;;;;;;;13.97;6.47;;;;;;;;;;10256298;28;20415;-64
2021/10/19 06:16:16;;;;;;;;;;;;;;;;;;10242690;28;20076;-64
2021/10/19 06:21:14;;;;;;;21.08;7.60;;;;;;;;;;10275798;28;20346;-61
2021/10/19 06:26:11;;;;;;;17.77;6.90;;;;;;;;;;10288298;28;20041;-65
2021/10/19 06:31:08;;;;;;;15.93;8.20;;;;;;;;;;10281402;28;20059;-60
2021/10/19 06:36:06;;;;;;;16.37;7.33;;;;;;;;;;10258466;28;20515;-63
2021/10/19 06:41:03;;;;;;;14.67;8.00;;;;;;;;;;10269812;28;20050;-64
2021/10/19 06:46:01;;;;;;;16.80;7.93;;;;;;;;;;10294994;28;20586;-65
2021/10/19 06:50:58;;;;;;;19.30;8.63;;;;;;;;;;10286883;28;20037;-64
2021/10/19 06:55:55;;;;;;;12.80;7.43;;;;;;;;;;10267367;28;20052;-64
2021/10/19 07:00:54;;;;;;;16.07;8.10;;;;;;;;;;10266298;28;20759;-65
2021/10/19 07:05:51;;;;;;;20.02;8.20;;;;;;;;;;10278989;28;20072;-64
2021/10/19 07:10:49;;;;;;;15.50;8.03;;;;;;;;;;10280098;28;20226;-64
2021/10/19 07:15:46;;;;;;;19.03;8.13;;;;;;;;;;10274320;28;20034;-64
2021/10/19 07:20:43;;;;;;;18.27;7.80;;;;;;;;;;10285452;28;20033;-65
2021/10/19 07:25:41;;;;;;;19.33;8.53;;;;;;;;;;10292282;28;20033;-64
2021/10/19 07:30:38;;;;;;;16.57;9.33;;;;;;;;;;10257453;28;20052;-61
2021/10/19 07:35:36;;;;;;;15.52;7.82;;;;;;;;;;10283329;28;20053;-61
2021/10/19 07:40:34;;;;;;;34.40;12.43;;;;;;;;;;10290313;28;20041;-65
2021/10/19 07:45:31;;;;;;;22.53;9.40;;;;;;;;;;10288961;28;20036;-64
2021/10/19 07:50:29;;;;;;;20.87;9.37;;;;;;;;;;10288342;28;20057;-64
2021/10/19 07:55:30;;;;;;;18.80;8.13;;;;;;;;;;10260422;28;20292;-66
2021/10/19 08:00:29;;;;;;;13.25;7.13;;;;;;;;;;10262631;28;20029;-64
2021/10/19 08:05:27;;;;;;;18.05;7.43;;;;;;;;;;10278371;28;20537;-64
2021/10/19 08:10:24;;;;;;;16.35;8.18;;;;;;;;;;10249209;28;20053;-63
2021/10/19 08:15:21;;;;;;;14.17;8.20;;;;;;;;;;10249488;28;20048;-64
2021/10/19 08:20:19;;;;;;;17.33;10.00;;;;;;;;;;10264652;28;20026;-66
2021/10/19 08:25:17;;;;;;;20.17;7.87;;;;;;;;;;10275255;28;20035;-61
2021/10/19 08:30:18;;;;;;;17.33;7.15;;;;;;;;;;10268792;28;20033;-64
2021/10/19 08:35:17;;;;;;;15.73;6.85;;;;;;;;;;10274083;28;20647;-64
2021/10/19 08:40:16;;;;;;;16.05;7.85;;;;;;;;;;10264296;28;20046;-64
2021/10/19 08:45:13;;;;;;;;;;;;;;;;;;10255419;28;20349;-64
2021/10/19 08:50:12;;;;;;;19.03;8.07;;;;;;;;;;10281715;28;19918;-63
2021/10/19 08:55:09;;;;;;;17.15;8.05;;;;;;;;;;10254215;28;20042;-63
2021/10/19 09:00:07;;;;;;;14.73;6.87;;;;;;;;;;10260010;28;20040;-64
2021/10/19 09:05:18;;;;;;;12.27;6.60;;;;;;;;;;10265683;28;20049;-64
2021/10/19 09:10:16;;;;;;;16.70;6.93;;;;;;;;;;10277550;28;20049;-65
2021/10/19 09:15:13;;;;;;;18.70;8.20;;;;;;;;;;10272732;28;20580;-65
2021/10/19 09:20:12;;;;;;;14.10;7.33;;;;;;;;;;10285036;28;20037;-64
2021/10/19 09:25:09;;;;;;;14.02;7.00;;;;;;;;;;10276856;28;20026;-60
2021/10/19 09:30:08;;;;;;;15.67;6.20;;;;;;;;;;10288437;28;20041;-63
2021/10/19 09:35:05;;;;;;;13.60;6.22;;;;;;;;;;10261027;28;20079;-64
2021/10/19 09:40:08;;;;;;;10.53;6.23;;;;;;;;;;10277308;28;20030;-63
2021/10/19 09:45:05;;;;;;;10.52;6.40;;;;;;;;;;10272395;28;20112;-64
2021/10/19 09:50:06;;;;;;;9.07;4.57;;;;;;;;;;10261846;28;20122;-64
2021/10/19 09:55:09;;;;;;;11.20;5.05;;;;;;;;;;10237232;28;20026;-64
2021/10/19 10:00:07;;;;;;;11.18;5.63;;;;;;;;;;10246436;28;20092;-64
2021/10/19 10:05:09;;;;;;;7.10;5.03;;;;;;;;;;10280769;28;20041;-61
2021/10/19 10:10:07;;;;;;;9.47;4.90;;;;;;;;;;10275639;28;20211;-61
2021/10/19 10:15:05;;;;;;;11.00;6.32;;;;;;;;;;10282686;28;20490;-64
2021/10/19 10:20:07;;;;;;;6.47;4.60;;;;;;;;;;10280508;28;20128;-64
2021/10/19 10:25:06;;;;;;;6.57;4.03;;;;;;;;;;10279827;28;20033;-61
2021/10/19 10:30:04;;;;;;;8.95;5.25;;;;;;;;;;10278998;28;20372;-62
2021/10/19 10:35:05;;;;;;;9.25;6.13;;;;;;;;;;10278562;28;20075;-62
2021/10/19 10:40:04;;;;;;;7.63;5.18;;;;;;;;;;10289100;23;20571;-60
2021/10/19 10:45:02;;;;;;;9.25;5.68;;;;;;;;;;10317086;28;20029;-60
2021/10/19 10:49:59;;;;;;;9.70;6.18;;;;;;;;;;10325040;28;20045;-60
2021/10/19 10:54:57;;;;;;;6.37;3.77;;;;;;;;;;10310435;28;20338;-62
2021/10/19 10:59:55;;;;;;;8.53;5.60;;;;;;;;;;10330050;28;20487;-60
2021/10/19 11:04:55;;;;;;;11.35;5.70;;;;;;;;;;10321069;28;20029;-61
2021/10/19 11:09:52;;;;;;;6.03;2.72;;;;;;;;;;10311948;28;20123;-59
2021/10/19 11:14:50;;;;;;;8.27;4.80;;;;;;;;;;10305443;28;20096;-60
2021/10/19 11:19:47;;;;;;;8.10;3.43;;;;;;;;;;10278281;28;20025;-58
2021/10/19 11:24:45;;;;;;;6.67;4.73;;;;;;;;;;10302034;28;20029;-61
2021/10/19 11:29:42;;;;;;;10.60;5.67;;;;;;;;;;10329283;28;20087;-61
2021/10/19 11:34:39;;;;;;;8.70;5.73;;;;;;;;;;10334086;28;20025;-57
2021/10/19 11:39:37;;;;;;;7.03;3.23;;;;;;;;;;10318974;28;20523;-60
2021/10/19 11:44:35;;;;;;;5.03;3.67;;;;;;;;;;10320705;28;20494;-61
2021/10/19 11:49:37;;;;;;;8.05;5.60;;;;;;;;;;10326142;28;20062;-61
2021/10/19 11:54:35;;;;;;;10.27;4.97;;;;;;;;;;10307641;28;20510;-61
2021/10/19 11:59:43;;;;;;;8.50;5.45;;;;;;;;;;10328609;28;20039;-60
2021/10/19 12:04:41;;;;;;;10.00;5.65;;;;;;;;;;10311555;28;20505;-61
2021/10/19 12:09:41;;;;;;;7.25;5.35;;;;;;;;;;10311587;28;20079;-61
2021/10/19 12:14:43;;;;;;;8.40;5.38;;;;;;;;;;10321295;28;20140;-61
2021/10/19 12:19:51;;;;;;;11.18;5.40;;;;;;;;;;10310299;28;20040;-61
2021/10/19 12:24:51;;;;;;;7.97;5.00;;;;;;;;;;10326145;28;20383;-60
2021/10/19 12:29:55;;;;;;;14.38;6.90;;;;;;;;;;10313509;28;20110;-61
2021/10/19 12:34:52;;;;;;;6.20;3.75;;;;;;;;;;10328615;28;20025;-60
2021/10/19 12:39:49;;;;;;;13.63;5.07;;;;;;;;;;10285803;28;20025;-60
2021/10/19 12:44:47;;;;;;;16.93;6.37;;;;;;;;;;10324024;28;20053;-61
2021/10/19 12:49:45;;;;;;;16.90;6.50;;;;;;;;;;10326061;28;20429;-61
2021/10/19 12:54:42;;;;;;;10.93;5.93;;;;;;;;;;10330149;28;20124;-61
2021/10/19 12:59:41;;;;;;;10.13;5.77;;;;;;;;;;10312532;28;20116;-62
2021/10/19 13:04:38;;;;;;;16.05;5.07;;;;;;;;;;10313240;28;20064;-61
2021/10/19 13:09:36;;;;;;;10.60;4.40;;;;;;;;;;10312303;28;20505;-60
2021/10/19 13:14:33;;;;;;;11.90;6.00;;;;;;;;;;10315041;28;20035;-61
2021/10/19 13:19:30;;;;;;;19.27;9.03;;;;;;;;;;10318834;28;20045;-61
2021/10/19 13:24:28;;;;;;;7.73;3.80;;;;;;;;;;10309200;28;20037;-61
2021/10/19 13:29:25;;;;;;;10.73;5.70;;;;;;;;;;10310379;28;20062;-61
2021/10/19 13:34:24;;;;;;;12.03;3.50;;;;;;;;;;10315305;28;20437;-61
2021/10/19 13:39:21;;;;;;;9.88;5.75;;;;;;;;;;10319875;28;20041;-61
2021/10/19 13:44:20;;;;;;;10.23;4.90;;;;;;;;;;10325605;28;20498;-63
2021/10/19 13:49:17;;;;;;;8.88;4.78;;;;;;;;;;10325232;28;20144;-61
2021/10/19 13:54:15;;;;;;;4.03;3.07;;;;;;;;;;10308519;28;20193;-61
2021/10/19 13:59:13;;;;;;;6.23;4.73;;;;;;;;;;10308839;28;20063;-61
2021/10/19 14:04:11;;;;;;;10.73;4.65;;;;;;;;;;10319023;28;20044;-61
2021/10/19 14:09:08;;;;;;;7.97;5.53;;;;;;;;;;10328151;28;20037;-61
2021/10/19 14:14:11;;;;;;;13.30;5.77;;;;;;;;;;10326863;28;20518;-61
2021/10/19 14:19:08;;;;;;;8.50;5.35;;;;;;;;;;10322713;28;20041;-62
2021/10/19 14:24:06;;;;;;;6.87;4.57;;;;;;;;;;10330321;28;20037;-62
2021/10/19 14:29:04;;;;;;;8.35;6.07;;;;;;;;;;10327033;28;20494;-62
2021/10/19 14:34:01;;;;;;;6.63;4.93;;;;;;;;;;10327478;28;20029;-60
2021/10/19 14:38:59;;;;;;;34.20;5.67;;;;;;;;;;10328145;28;20037;-62
2021/10/19 14:43:56;;;;;;;6.97;4.73;;;;;;;;;;10324466;28;20041;-60
2021/10/19 14:48:54;;;;;;;6.80;4.33;;;;;;;;;;10333942;28;20052;-62
2021/10/19 14:53:51;;;;;;;6.87;4.93;;;;;;;;;;10331900;28;20087;-61
2021/10/19 14:58:50;;;;;;;6.43;5.07;;;;;;;;;;10329862;28;20064;-62
2021/10/19 15:03:47;;;;;;;7.00;3.97;;;;;;;;;;10315411;28;20065;-61
2021/10/19 15:08:45;;;;;;;8.93;5.63;;;;;;;;;;10316864;28;20064;-61
2021/10/19 15:13:47;;;;;;;10.68;6.45;;;;;;;;;;10316619;28;20509;-60
2021/10/19 15:18:45;;;;;;;5.78;4.07;;;;;;;;;;10321580;28;20083;-61
2021/10/19 15:23:42;;;;;;;10.60;5.60;;;;;;;;;;10318561;28;20033;-61
2021/10/19 15:28:40;;;;;;;11.27;6.80;;;;;;;;;;10296645;28;20708;-60
2021/10/19 15:33:37;;;;;;;13.30;8.87;;;;;;;;;;10292379;28;20022;-61
2021/10/19 15:38:36;;;;;;;7.13;5.60;;;;;;;;;;10319141;28;20103;-60
2021/10/19 15:43:34;;;;;;;10.25;5.78;;;;;;;;;;10304973;28;20434;-61
2021/10/19 15:48:31;;;;;;;8.65;5.93;;;;;;;;;;10327676;28;20037;-61
2021/10/19 15:53:29;;;;;;;7.37;4.63;;;;;;;;;;10318682;28;20429;-61
2021/10/19 15:58:27;;;;;;;7.37;5.20;;;;;;;;;;10308003;28;20560;-60
2021/10/19 16:03:24;;;;;;;8.45;4.18;;;;;;;;;;10306107;28;20037;-61
2021/10/19 16:08:22;;;;;;;7.77;4.47;;;;;;;;;;10318376;28;20041;-61
2021/10/19 16:13:19;;;;;;;5.07;3.43;;;;;;;;;;10329509;28;20079;-61
2021/10/19 16:18:17;;;;;;;5.50;3.60;;;;;;;;;;10322121;28;20037;-60
2021/10/19 16:23:14;;;;;;;6.73;3.17;;;;;;;;;;10325509;28;20034;-61
2021/10/19 16:28:12;;;;;;;3.23;1.90;;;;;;;;;;10322268;28;20034;-61
2021/10/19 16:33:09;;;;;;;3.03;2.17;;;;;;;;;;10319379;28;20140;-60
2021/10/19 16:38:07;;;;;;;2.47;2.03;;;;;;;;;;10311657;28;20041;-59
2021/10/19 16:43:05;;;;;;;5.35;3.47;;;;;;;;;;10276289;28;20045;-61
2021/10/19 16:48:02;;;;;;;5.43;4.10;;;;;;;;;;10295514;28;20037;-61
2021/10/19 16:52:59;;;;;;;7.37;4.90;;;;;;;;;;10323976;28;20036;-61
2021/10/19 16:57:57;;;;;;;9.87;5.67;;;;;;;;;;10317124;28;20536;-60
2021/10/19 17:02:54;;;;;;;8.50;4.37;;;;;;;;;;10327933;28;20037;-61
2021/10/19 17:07:52;;;;;;;13.33;6.60;;;;;;;;;;10305877;28;20037;-61
2021/10/19 17:12:49;;;;;;;13.00;8.20;;;;;;;;;;10324641;28;20029;-59
2021/10/19 17:17:47;;;;;;;11.38;7.13;;;;;;;;;;10305382;28;20034;-61
2021/10/19 17:22:44;;;;;;;5.30;3.57;;;;;;;;;;10307692;28;20041;-61
2021/10/19 17:27:42;;;;;;;5.57;3.27;;;;;;;;;;10319814;28;20044;-61
2021/10/19 17:32:39;;;;;;;6.60;3.80;;;;;;;;;;10319684;28;20067;-61
2021/10/19 17:37:37;;;;;;;7.83;4.60;;;;;;;;;;10318570;28;20037;-60
2021/10/19 17:42:35;;;;;;;6.47;4.17;;;;;;;;;;10321242;28;20507;-60
2021/10/19 17:47:32;;;;;;;10.57;5.68;;;;;;;;;;10330956;28;20099;-60
2021/10/19 17:52:30;;;;;;;11.03;5.10;;;;;;;;;;10309442;28;20502;-61
2021/10/19 17:57:28;;;;;;;10.23;5.45;;;;;;;;;;10318484;28;20688;-61
2021/10/19 18:02:25;;;;;;;12.40;6.63;;;;;;;;;;10326867;28;20029;-61
2021/10/19 18:07:22;;;;;;;9.87;5.73;;;;;;;;;;10324700;28;20876;-61
2021/10/19 18:12:20;;;;;;;15.30;6.90;;;;;;;;;;10330368;28;20033;-61
2021/10/19 18:17:17;;;;;;;18.93;8.33;;;;;;;;;;10328801;28;20056;-62
2021/10/19 18:22:15;;;;;;;22.88;8.50;;;;;;;;;;10320844;28;20921;-61
2021/10/19 18:27:13;;;;;;;18.63;8.33;;;;;;;;;;10326289;28;20537;-61
2021/10/19 18:32:11;;;;;;;17.23;8.93;;;;;;;;;;10323935;28;20036;-61
2021/10/19 18:37:08;;;;;;;23.35;9.98;;;;;;;;;;10331719;28;20521;-61
2021/10/19 18:42:06;;;;;;;20.97;10.40;;;;;;;;;;10330349;28;20502;-60
2021/10/19 18:47:04;;;;;;;16.33;8.75;;;;;;;;;;10314131;28;20049;-61
2021/10/19 18:57:05;;;;;;;24.85;11.75;;;;;;;;;;9355838;23;20511;-66
2021/10/19 19:02:02;;;;;;;20.97;9.90;;;;;;;;;;10279636;28;20098;-64
2021/10/19 19:07:00;;;;;;;18.80;9.80;;;;;;;;;;10280756;28;20099;-63
2021/10/19 19:12:00;;;;;;;;;;;;;;;;;;10283260;28;20030;-65
2021/10/19 19:16:57;;;;;;;22.75;11.50;;;;;;;;;;10258952;28;19917;-61
2021/10/19 19:21:57;;;;;;;28.15;14.07;;;;;;;;;;10257907;28;20045;-64
2021/10/19 19:26:54;;;;;;;26.50;12.77;;;;;;;;;;10226151;28;20038;-64
2021/10/19 19:31:52;;;;;;;24.77;11.47;;;;;;;;;;10241132;28;20370;-62
2021/10/19 19:36:50;;;;;;;21.63;11.17;;;;;;;;;;10248357;28;20558;-63
2021/10/19 19:41:47;;;;;;;23.90;12.50;;;;;;;;;;10223938;28;20044;-63
2021/10/19 19:46:45;;;;;;;25.57;13.77;;;;;;;;;;10242958;28;20042;-63
2021/10/19 19:51:42;;;;;;;29.83;16.00;;;;;;;;;;10247413;28;20416;-65
2021/10/19 19:56:40;;;;;;;32.37;14.53;;;;;;;;;;10242789;28;20038;-63
2021/10/19 20:01:41;;;;;;;36.43;17.60;;;;;;;;;;10240825;28;20046;-64
2021/10/19 20:06:38;;;;;;;42.03;23.85;;;;;;;;;;10250082;28;20041;-61
2021/10/19 20:11:36;;;;;;;28.83;13.07;;;;;;;;;;10263582;28;20041;-64
2021/10/19 20:16:34;;;;;;;36.27;19.97;;;;;;;;;;10244147;28;20246;-63
2021/10/19 20:21:31;;;;;;;35.85;17.88;;;;;;;;;;10246458;28;20056;-63
2021/10/19 20:26:29;;;;;;;25.73;13.93;;;;;;;;;;10248481;28;20042;-63
2021/10/19 20:31:29;;;;;;;24.80;13.88;;;;;;;;;;10249268;28;20042;-63
2021/10/19 20:36:27;;;;;;;41.17;21.50;;;;;;;;;;10226237;28;20518;-65
2021/10/19 20:41:25;;;;;;;26.65;13.48;;;;;;;;;;10246970;28;20107;-64
2021/10/19 20:46:23;;;;;;;25.35;14.60;;;;;;;;;;10248936;28;20030;-62
2021/10/19 20:51:20;;;;;;;37.33;20.30;;;;;;;;;;10240335;28;20049;-64
2021/10/19 20:56:18;;;;;;;21.63;11.13;;;;;;;;;;10246372;28;20045;-60
2021/10/19 21:01:16;;;;;;;20.58;8.85;;;;;;;;;;10235806;28;20058;-63
2021/10/19 21:06:14;;;;;;;28.33;13.07;;;;;;;;;;10245841;28;20037;-64
2021/10/19 21:11:12;;;;;;;11.07;4.87;;;;;;;;;;10244820;28;20056;-63
2021/10/19 21:16:10;;;;;;;12.45;5.28;;;;;;;;;;10244449;28;20044;-64
2021/10/19 21:21:08;;;;;;;24.33;5.23;;;;;;;;;;10241897;28;20038;-64
2021/10/19 21:26:06;;;;;;;18.45;5.72;;;;;;;;;;10243809;28;20049;-63
2021/10/19 21:31:03;;;;;;;16.73;8.20;;;;;;;;;;10244104;28;20050;-63
2021/10/19 21:36:01;;;;;;;13.90;7.57;;;;;;;;;;10245726;28;20863;-64
2021/10/19 21:40:58;;;;;;;12.57;6.07;;;;;;;;;;10265432;28;20046;-64
2021/10/19 21:45:56;;;;;;;20.40;8.87;;;;;;;;;;10264221;28;20285;-64
2021/10/19 21:50:53;;;;;;;12.80;7.00;;;;;;;;;;10263055;28;20060;-64
2021/10/19 21:55:50;;;;;;;12.03;7.17;;;;;;;;;;10252114;28;20053;-63
2021/10/19 22:00:49;;;;;;;11.17;6.77;;;;;;;;;;10267483;28;20041;-65
2021/10/19 22:05:46;;;;;;;;;;;;;;;;;;10269401;28;20404;-65
2021/10/19 22:10:49;;;;;;;20.58;7.78;;;;;;;;;;10265447;28;19949;-64
2021/10/19 22:15:47;;;;;;;11.32;7.28;;;;;;;;;;10267501;28;20567;-63
2021/10/19 22:20:44;;;;;;;14.68;7.15;;;;;;;;;;10246128;28;20129;-64
2021/10/19 22:30:58;;;;;;;12.35;7.15;;;;;;;;;;10269261;28;20284;-62
2021/10/19 22:35:56;;;;;;;9.38;6.47;;;;;;;;;;10273965;28;20044;-62
2021/10/19 22:40:54;;;;;;;11.27;6.20;;;;;;;;;;10276238;28;20372;-64
2021/10/19 22:45:51;;;;;;;16.23;8.07;;;;;;;;;;10282397;28;20081;-64
2021/10/19 22:50:48;;;;;;;10.13;5.40;;;;;;;;;;10287197;28;20519;-65
2021/10/19 22:55:46;;;;;;;13.33;7.33;;;;;;;;;;10289289;28;20040;-64
2021/10/19 23:00:44;;;;;;;13.50;6.50;;;;;;;;;;10289333;28;20482;-63
2021/10/19 23:05:41;;;;;;;14.27;7.50;;;;;;;;;;10291408;28;20121;-64
2021/10/19 23:10:40;;;;;;;;;;;;;;;;;;10291108;28;20597;-64
2021/10/19 23:15:39;;;;;;;10.82;6.03;;;;;;;;;;10274435;28;20147;-64
2021/10/19 23:20:39;;;;;;;12.03;7.17;;;;;;;;;;10268705;28;20030;-63
2021/10/19 23:25:36;;;;;;;14.68;7.78;;;;;;;;;;10286662;28;20116;-63
2021/10/19 23:30:34;;;;;;;19.77;7.68;;;;;;;;;;10297291;28;20125;-63
2021/10/19 23:35:31;;;;;;;21.07;7.10;;;;;;;;;;10272718;28;20029;-64
2021/10/19 23:40:29;;;;;;;7.70;3.70;;;;;;;;;;10267262;28;20076;-64
2021/10/19 23:45:26;;;;;;;16.40;6.90;;;;;;;;;;10286390;28;20034;-64
2021/10/19 23:50:24;;;;;;;14.70;6.37;;;;;;;;;;10285613;28;20049;-65
2021/10/19 23:55:21;;;;;;;14.68;6.53;;;;;;;;;;10277848;28;20038;-63
